Terminal Aerodrome Forecast
Issued by NWS Boston, MA

Home | Current Version | Previous Version | Text Only | Print | Product List | Glossary On
Versions: 1 2 3 4 5 6 7 8 9 10 11 12 13 14
000
FTUS41 KBOX 251517 AAA
TAFORH
TAF AMD
KORH 251517Z 2515/2612 24011KT P6SM SCT130 BKN250
     FM252000 23007KT P6SM VCTS BKN080CB
     FM252200 23007KT 4SM TSRA BKN050CB
     FM260100 25006KT P6SM OVC080
     FM260400 25006KT P6SM SCT250=

USA.gov is the U.S. government's official web portal to all federal, state and local government web resources and services.